sensor_id;sensor_type;location;lat;lon;timestamp;temperature;humidity
67054;SHT31;53960;51.826;5.850;2023-08-21T00:01:55;20.48;80.61
67054;SHT31;53960;51.826;5.850;2023-08-21T00:04:21;20.45;80.83
67054;SHT31;53960;51.826;5.850;2023-08-21T00:06:46;20.45;80.49
67054;SHT31;53960;51.826;5.850;2023-08-21T00:09:11;20.45;80.43
67054;SHT31;53960;51.826;5.850;2023-08-21T00:11:37;20.36;80.45
67054;SHT31;53960;51.826;5.850;2023-08-21T00:14:02;20.37;80.51
67054;SHT31;53960;51.826;5.850;2023-08-21T00:16:27;20.41;79.71
67054;SHT31;53960;51.826;5.850;2023-08-21T00:18:53;20.37;80.09
67054;SHT31;53960;51.826;5.850;2023-08-21T00:21:19;20.33;80.09
67054;SHT31;53960;51.826;5.850;2023-08-21T00:23:45;20.36;79.94
67054;SHT31;53960;51.826;5.850;2023-08-21T00:26:11;20.34;80.19
67054;SHT31;53960;51.826;5.850;2023-08-21T00:28:37;20.34;79.51
67054;SHT31;53960;51.826;5.850;2023-08-21T00:31:03;20.33;79.49
67054;SHT31;53960;51.826;5.850;2023-08-21T00:33:32;20.33;79.41
67054;SHT31;53960;51.826;5.850;2023-08-21T00:35:58;20.30;79.06
67054;SHT31;53960;51.826;5.850;2023-08-21T00:38:23;20.33;79.18
67054;SHT31;53960;51.826;5.850;2023-08-21T00:40:49;20.37;79.46
67054;SHT31;53960;51.826;5.850;2023-08-21T00:43:15;20.34;79.50
67054;SHT31;53960;51.826;5.850;2023-08-21T00:45:42;20.39;79.50
67054;SHT31;53960;51.826;5.850;2023-08-21T00:48:08;20.39;79.71
67054;SHT31;53960;51.826;5.850;2023-08-21T00:50:35;20.41;79.59
67054;SHT31;53960;51.826;5.850;2023-08-21T00:53:01;20.39;79.76
67054;SHT31;53960;51.826;5.850;2023-08-21T00:55:27;20.41;79.73
67054;SHT31;53960;51.826;5.850;2023-08-21T00:57:52;20.40;80.01
67054;SHT31;53960;51.826;5.850;2023-08-21T01:00:18;20.36;80.03
67054;SHT31;53960;51.826;5.850;2023-08-21T01:02:44;20.31;80.29
67054;SHT31;53960;51.826;5.850;2023-08-21T01:05:09;20.33;80.16
67054;SHT31;53960;51.826;5.850;2023-08-21T01:07:40;20.31;80.13
67054;SHT31;53960;51.826;5.850;2023-08-21T01:10:15;20.29;80.13
67054;SHT31;53960;51.826;5.850;2023-08-21T01:12:50;20.21;80.20
67054;SHT31;53960;51.826;5.850;2023-08-21T01:15:18;20.17;80.43
67054;SHT31;53960;51.826;5.850;2023-08-21T01:17:45;20.13;80.26
67054;SHT31;53960;51.826;5.850;2023-08-21T01:20:11;20.13;80.13
67054;SHT31;53960;51.826;5.850;2023-08-21T01:22:39;20.10;80.01
67054;SHT31;53960;51.826;5.850;2023-08-21T01:25:05;20.06;80.12
67054;SHT31;53960;51.826;5.850;2023-08-21T01:27:32;20.00;80.29
67054;SHT31;53960;51.826;5.850;2023-08-21T01:29:58;20.01;80.28
67054;SHT31;53960;51.826;5.850;2023-08-21T01:32:32;19.99;80.23
67054;SHT31;53960;51.826;5.850;2023-08-21T01:34:59;20.03;80.18
67054;SHT31;53960;51.826;5.850;2023-08-21T01:37:26;20.05;80.04
67054;SHT31;53960;51.826;5.850;2023-08-21T01:39:51;20.08;80.33
67054;SHT31;53960;51.826;5.850;2023-08-21T01:42:16;20.01;80.32
67054;SHT31;53960;51.826;5.850;2023-08-21T01:44:42;20.08;80.30
67054;SHT31;53960;51.826;5.850;2023-08-21T01:47:11;20.00;80.44
67054;SHT31;53960;51.826;5.850;2023-08-21T01:49:36;19.94;80.39
67054;SHT31;53960;51.826;5.850;2023-08-21T01:52:02;19.99;80.36
67054;SHT31;53960;51.826;5.850;2023-08-21T01:54:28;20.01;80.19
67054;SHT31;53960;51.826;5.850;2023-08-21T01:56:54;19.97;80.02
67054;SHT31;53960;51.826;5.850;2023-08-21T01:59:19;20.00;79.97
67054;SHT31;53960;51.826;5.850;2023-08-21T02:01:45;19.99;80.10
67054;SHT31;53960;51.826;5.850;2023-08-21T02:04:10;19.90;79.98
67054;SHT31;53960;51.826;5.850;2023-08-21T02:06:36;19.94;80.02
67054;SHT31;53960;51.826;5.850;2023-08-21T02:09:01;19.92;80.39
67054;SHT31;53960;51.826;5.850;2023-08-21T02:11:26;19.93;80.33
67054;SHT31;53960;51.826;5.850;2023-08-21T02:13:52;19.92;80.30
67054;SHT31;53960;51.826;5.850;2023-08-21T02:16:17;19.89;80.42
67054;SHT31;53960;51.826;5.850;2023-08-21T02:18:42;19.89;80.47
67054;SHT31;53960;51.826;5.850;2023-08-21T02:21:08;19.86;80.43
67054;SHT31;53960;51.826;5.850;2023-08-21T02:23:33;19.80;80.80
67054;SHT31;53960;51.826;5.850;2023-08-21T02:25:58;19.80;80.40
67054;SHT31;53960;51.826;5.850;2023-08-21T02:28:24;19.80;80.31
67054;SHT31;53960;51.826;5.850;2023-08-21T02:30:49;19.69;80.39
67054;SHT31;53960;51.826;5.850;2023-08-21T02:33:14;19.68;80.47
67054;SHT31;53960;51.826;5.850;2023-08-21T02:35:40;19.61;80.55
67054;SHT31;53960;51.826;5.850;2023-08-21T02:38:05;19.59;80.51
67054;SHT31;53960;51.826;5.850;2023-08-21T02:40:30;19.63;80.42
67054;SHT31;53960;51.826;5.850;2023-08-21T02:42:57;19.68;80.45
67054;SHT31;53960;51.826;5.850;2023-08-21T02:45:22;19.73;80.32
67054;SHT31;53960;51.826;5.850;2023-08-21T02:47:47;19.69;80.40
67054;SHT31;53960;51.826;5.850;2023-08-21T02:50:13;19.66;80.59
67054;SHT31;53960;51.826;5.850;2023-08-21T02:52:38;19.63;80.83
67054;SHT31;53960;51.826;5.850;2023-08-21T02:55:04;19.66;80.78
67054;SHT31;53960;51.826;5.850;2023-08-21T02:57:30;19.65;80.72
67054;SHT31;53960;51.826;5.850;2023-08-21T02:59:55;19.61;80.85
67054;SHT31;53960;51.826;5.850;2023-08-21T03:02:22;19.59;80.67
67054;SHT31;53960;51.826;5.850;2023-08-21T03:04:48;19.58;80.44
67054;SHT31;53960;51.826;5.850;2023-08-21T03:07:13;19.48;80.67
67054;SHT31;53960;51.826;5.850;2023-08-21T03:09:39;19.42;80.75
67054;SHT31;53960;51.826;5.850;2023-08-21T03:12:05;19.44;80.55
67054;SHT31;53960;51.826;5.850;2023-08-21T03:14:30;19.44;80.47
67054;SHT31;53960;51.826;5.850;2023-08-21T03:16:57;19.42;80.43
67054;SHT31;53960;51.826;5.850;2023-08-21T03:19:23;19.48;80.59
67054;SHT31;53960;51.826;5.850;2023-08-21T03:21:48;19.47;80.86
67054;SHT31;53960;51.826;5.850;2023-08-21T03:24:14;19.51;80.99
67054;SHT31;53960;51.826;5.850;2023-08-21T03:26:39;19.47;81.19
67054;SHT31;53960;51.826;5.850;2023-08-21T03:29:05;19.52;81.41
67054;SHT31;53960;51.826;5.850;2023-08-21T03:31:30;19.52;81.72
67054;SHT31;53960;51.826;5.850;2023-08-21T03:33:56;19.47;82.15
67054;SHT31;53960;51.826;5.850;2023-08-21T03:36:21;19.44;82.39
67054;SHT31;53960;51.826;5.850;2023-08-21T03:38:48;19.45;82.89
67054;SHT31;53960;51.826;5.850;2023-08-21T03:41:13;19.52;82.84
67054;SHT31;53960;51.826;5.850;2023-08-21T03:43:39;19.49;83.26
67054;SHT31;53960;51.826;5.850;2023-08-21T03:46:04;19.51;83.23
67054;SHT31;53960;51.826;5.850;2023-08-21T03:48:29;19.54;83.68
67054;SHT31;53960;51.826;5.850;2023-08-21T03:50:55;19.55;83.63
67054;SHT31;53960;51.826;5.850;2023-08-21T03:53:20;19.49;83.76
67054;SHT31;53960;51.826;5.850;2023-08-21T03:55:46;19.54;83.73
67054;SHT31;53960;51.826;5.850;2023-08-21T03:58:12;19.49;84.08
67054;SHT31;53960;51.826;5.850;2023-08-21T04:00:37;19.49;84.21
67054;SHT31;53960;51.826;5.850;2023-08-21T04:03:03;19.52;84.21
67054;SHT31;53960;51.826;5.850;2023-08-21T04:05:28;19.49;84.24
67054;SHT31;53960;51.826;5.850;2023-08-21T04:07:54;19.51;84.23
67054;SHT31;53960;51.826;5.850;2023-08-21T04:10:19;19.47;84.61
67054;SHT31;53960;51.826;5.850;2023-08-21T04:12:44;19.47;84.33
67054;SHT31;53960;51.826;5.850;2023-08-21T04:15:10;19.49;84.36
67054;SHT31;53960;51.826;5.850;2023-08-21T04:17:35;19.57;83.86
67054;SHT31;53960;51.826;5.850;2023-08-21T04:20:01;19.54;84.29
67054;SHT31;53960;51.826;5.850;2023-08-21T04:22:26;19.58;83.88
67054;SHT31;53960;51.826;5.850;2023-08-21T04:24:51;19.55;84.02
67054;SHT31;53960;51.826;5.850;2023-08-21T04:27:17;19.58;83.99
67054;SHT31;53960;51.826;5.850;2023-08-21T04:29:42;19.57;84.02
67054;SHT31;53960;51.826;5.850;2023-08-21T04:32:07;19.48;84.24
67054;SHT31;53960;51.826;5.850;2023-08-21T04:34:33;19.39;84.51
67054;SHT31;53960;51.826;5.850;2023-08-21T04:36:58;19.41;84.36
67054;SHT31;53960;51.826;5.850;2023-08-21T04:39:24;19.39;84.30
67054;SHT31;53960;51.826;5.850;2023-08-21T04:41:49;19.39;84.24
67054;SHT31;53960;51.826;5.850;2023-08-21T04:44:15;19.32;84.36
67054;SHT31;53960;51.826;5.850;2023-08-21T04:46:40;19.35;84.32
67054;SHT31;53960;51.826;5.850;2023-08-21T04:49:05;19.41;83.94
67054;SHT31;53960;51.826;5.850;2023-08-21T04:51:31;19.41;84.01
67054;SHT31;53960;51.826;5.850;2023-08-21T04:53:56;19.51;83.35
67054;SHT31;53960;51.826;5.850;2023-08-21T04:56:21;19.44;83.89
67054;SHT31;53960;51.826;5.850;2023-08-21T04:58:47;19.45;83.98
67054;SHT31;53960;51.826;5.850;2023-08-21T05:01:12;19.48;83.90
67054;SHT31;53960;51.826;5.850;2023-08-21T05:03:37;19.45;84.04
67054;SHT31;53960;51.826;5.850;2023-08-21T05:06:03;19.52;83.68
67054;SHT31;53960;51.826;5.850;2023-08-21T05:08:28;19.52;83.83
67054;SHT31;53960;51.826;5.850;2023-08-21T05:10:55;19.57;84.21
67054;SHT31;53960;51.826;5.850;2023-08-21T05:13:21;19.59;83.70
67054;SHT31;53960;51.826;5.850;2023-08-21T05:15:54;19.58;84.31
67054;SHT31;53960;51.826;5.850;2023-08-21T05:18:20;19.66;84.15
67054;SHT31;53960;51.826;5.850;2023-08-21T05:20:47;19.69;84.34
67054;SHT31;53960;51.826;5.850;2023-08-21T05:23:12;19.75;82.43
67054;SHT31;53960;51.826;5.850;2023-08-21T05:25:37;19.78;82.05
67054;SHT31;53960;51.826;5.850;2023-08-21T05:28:05;19.76;81.37
67054;SHT31;53960;51.826;5.850;2023-08-21T05:30:30;19.86;81.33
67054;SHT31;53960;51.826;5.850;2023-08-21T05:32:56;19.93;81.38
67054;SHT31;53960;51.826;5.850;2023-08-21T05:35:21;19.97;82.32
67054;SHT31;53960;51.826;5.850;2023-08-21T05:37:46;20.03;81.10
67054;SHT31;53960;51.826;5.850;2023-08-21T05:40:12;20.03;80.53
67054;SHT31;53960;51.826;5.850;2023-08-21T05:42:38;20.05;79.90
67054;SHT31;53960;51.826;5.850;2023-08-21T05:45:04;20.01;79.62
67054;SHT31;53960;51.826;5.850;2023-08-21T05:47:29;20.00;79.25
67054;SHT31;53960;51.826;5.850;2023-08-21T05:49:55;19.99;79.94
67054;SHT31;53960;51.826;5.850;2023-08-21T05:52:21;20.01;81.87
67054;SHT31;53960;51.826;5.850;2023-08-21T05:54:46;20.10;79.04
67054;SHT31;53960;51.826;5.850;2023-08-21T05:57:11;20.13;79.11
67054;SHT31;53960;51.826;5.850;2023-08-21T05:59:43;20.21;78.55
67054;SHT31;53960;51.826;5.850;2023-08-21T06:02:09;20.23;78.55
67054;SHT31;53960;51.826;5.850;2023-08-21T06:04:34;20.21;78.44
67054;SHT31;53960;51.826;5.850;2023-08-21T06:07:00;20.29;78.51
67054;SHT31;53960;51.826;5.850;2023-08-21T06:09:25;20.34;78.51
67054;SHT31;53960;51.826;5.850;2023-08-21T06:11:50;20.41;77.96
67054;SHT31;53960;51.826;5.850;2023-08-21T06:14:16;20.44;78.24
67054;SHT31;53960;51.826;5.850;2023-08-21T06:16:41;20.51;78.55
67054;SHT31;53960;51.826;5.850;2023-08-21T06:19:06;20.55;77.82
67054;SHT31;53960;51.826;5.850;2023-08-21T06:21:32;20.51;78.50
67054;SHT31;53960;51.826;5.850;2023-08-21T06:23:57;20.55;78.34
67054;SHT31;53960;51.826;5.850;2023-08-21T06:26:22;20.60;78.03
67054;SHT31;53960;51.826;5.850;2023-08-21T06:28:48;20.64;78.09
67054;SHT31;53960;51.826;5.850;2023-08-21T06:31:13;20.68;77.95
67054;SHT31;53960;51.826;5.850;2023-08-21T06:33:38;20.69;77.09
67054;SHT31;53960;51.826;5.850;2023-08-21T06:36:04;20.69;77.66
67054;SHT31;53960;51.826;5.850;2023-08-21T06:38:29;20.71;78.06
67054;SHT31;53960;51.826;5.850;2023-08-21T06:40:55;20.72;78.16
67054;SHT31;53960;51.826;5.850;2023-08-21T06:43:20;20.79;78.29
67054;SHT31;53960;51.826;5.850;2023-08-21T06:45:46;20.88;77.30
67054;SHT31;53960;51.826;5.850;2023-08-21T06:48:12;20.87;76.82
67054;SHT31;53960;51.826;5.850;2023-08-21T06:50:37;20.87;76.35
67054;SHT31;53960;51.826;5.850;2023-08-21T06:53:03;20.95;76.05
67054;SHT31;53960;51.826;5.850;2023-08-21T06:55:28;20.91;76.78
67054;SHT31;53960;51.826;5.850;2023-08-21T06:57:53;20.85;76.81
67054;SHT31;53960;51.826;5.850;2023-08-21T07:00:19;20.88;76.70
67054;SHT31;53960;51.826;5.850;2023-08-21T07:02:44;20.88;76.72
67054;SHT31;53960;51.826;5.850;2023-08-21T07:05:09;20.85;77.06
67054;SHT31;53960;51.826;5.850;2023-08-21T07:07:35;20.89;76.47
67054;SHT31;53960;51.826;5.850;2023-08-21T07:10:00;20.92;76.11
67054;SHT31;53960;51.826;5.850;2023-08-21T07:12:26;20.89;76.99
67054;SHT31;53960;51.826;5.850;2023-08-21T07:14:51;20.95;76.05
67054;SHT31;53960;51.826;5.850;2023-08-21T07:17:17;20.99;75.77
67054;SHT31;53960;51.826;5.850;2023-08-21T07:19:44;21.05;76.09
67054;SHT31;53960;51.826;5.850;2023-08-21T07:22:09;21.15;75.70
67054;SHT31;53960;51.826;5.850;2023-08-21T07:24:34;21.25;75.79
67054;SHT31;53960;51.826;5.850;2023-08-21T07:27:00;21.32;74.97
67054;SHT31;53960;51.826;5.850;2023-08-21T07:29:25;21.43;74.92
67054;SHT31;53960;51.826;5.850;2023-08-21T07:31:50;21.51;74.53
67054;SHT31;53960;51.826;5.850;2023-08-21T07:34:16;21.63;74.62
67054;SHT31;53960;51.826;5.850;2023-08-21T07:36:41;21.66;74.79
67054;SHT31;53960;51.826;5.850;2023-08-21T07:39:06;21.67;74.10
67054;SHT31;53960;51.826;5.850;2023-08-21T07:41:32;21.68;73.89
67054;SHT31;53960;51.826;5.850;2023-08-21T07:43:57;21.71;75.30
67054;SHT31;53960;51.826;5.850;2023-08-21T07:46:22;21.74;75.45
67054;SHT31;53960;51.826;5.850;2023-08-21T07:48:49;21.76;75.05
67054;SHT31;53960;51.826;5.850;2023-08-21T07:51:15;21.86;73.99
67054;SHT31;53960;51.826;5.850;2023-08-21T07:53:40;21.90;72.53
67054;SHT31;53960;51.826;5.850;2023-08-21T07:56:06;21.88;72.63
67054;SHT31;53960;51.826;5.850;2023-08-21T07:58:32;21.90;73.02
67054;SHT31;53960;51.826;5.850;2023-08-21T08:00:58;21.91;73.12
67054;SHT31;53960;51.826;5.850;2023-08-21T08:03:24;21.91;73.27
67054;SHT31;53960;51.826;5.850;2023-08-21T08:05:49;21.94;72.54
67054;SHT31;53960;51.826;5.850;2023-08-21T08:08:16;22.04;72.27
67054;SHT31;53960;51.826;5.850;2023-08-21T08:10:42;22.14;72.31
67054;SHT31;53960;51.826;5.850;2023-08-21T08:13:08;22.12;70.84
67054;SHT31;53960;51.826;5.850;2023-08-21T08:15:34;22.24;72.77
67054;SHT31;53960;51.826;5.850;2023-08-21T08:18:01;22.41;72.56
67054;SHT31;53960;51.826;5.850;2023-08-21T08:20:27;22.45;72.05
67054;SHT31;53960;51.826;5.850;2023-08-21T08:22:52;22.44;71.31
67054;SHT31;53960;51.826;5.850;2023-08-21T08:25:17;22.46;71.56
67054;SHT31;53960;51.826;5.850;2023-08-21T08:27:43;22.46;70.35
67054;SHT31;53960;51.826;5.850;2023-08-21T08:30:09;22.49;71.01
67054;SHT31;53960;51.826;5.850;2023-08-21T08:32:34;22.53;71.55
67054;SHT31;53960;51.826;5.850;2023-08-21T08:35:00;22.56;72.39
67054;SHT31;53960;51.826;5.850;2023-08-21T08:37:25;22.62;71.26
67054;SHT31;53960;51.826;5.850;2023-08-21T08:39:50;22.60;71.76
67054;SHT31;53960;51.826;5.850;2023-08-21T08:42:16;22.60;71.92
67054;SHT31;53960;51.826;5.850;2023-08-21T08:44:43;22.70;70.53
67054;SHT31;53960;51.826;5.850;2023-08-21T08:47:12;22.79;69.47
67054;SHT31;53960;51.826;5.850;2023-08-21T08:49:38;22.84;69.76
67054;SHT31;53960;51.826;5.850;2023-08-21T08:52:04;22.94;69.53
67054;SHT31;53960;51.826;5.850;2023-08-21T08:54:30;22.93;69.10
67054;SHT31;53960;51.826;5.850;2023-08-21T08:56:56;23.03;69.38
67054;SHT31;53960;51.826;5.850;2023-08-21T08:59:22;23.08;69.71
67054;SHT31;53960;51.826;5.850;2023-08-21T09:01:47;23.21;69.85
67054;SHT31;53960;51.826;5.850;2023-08-21T09:04:13;23.30;68.20
67054;SHT31;53960;51.826;5.850;2023-08-21T09:06:38;23.34;67.97
67054;SHT31;53960;51.826;5.850;2023-08-21T09:09:04;23.51;67.84
67054;SHT31;53960;51.826;5.850;2023-08-21T09:11:31;23.57;66.78
67054;SHT31;53960;51.826;5.850;2023-08-21T09:13:58;23.57;68.61
67054;SHT31;53960;51.826;5.850;2023-08-21T09:16:25;23.52;67.65
67054;SHT31;53960;51.826;5.850;2023-08-21T09:18:55;23.43;68.06
67054;SHT31;53960;51.826;5.850;2023-08-21T09:21:25;23.41;68.79
67054;SHT31;53960;51.826;5.850;2023-08-21T09:23:57;23.30;68.61
67054;SHT31;53960;51.826;5.850;2023-08-21T09:26:23;23.27;69.13
67054;SHT31;53960;51.826;5.850;2023-08-21T09:28:49;23.37;69.55
67054;SHT31;53960;51.826;5.850;2023-08-21T09:31:15;23.48;69.57
67054;SHT31;53960;51.826;5.850;2023-08-21T09:33:42;23.68;69.71
67054;SHT31;53960;51.826;5.850;2023-08-21T09:36:09;23.61;70.23
67054;SHT31;53960;51.826;5.850;2023-08-21T09:38:36;23.58;68.94
67054;SHT31;53960;51.826;5.850;2023-08-21T09:41:03;23.66;68.94
67054;SHT31;53960;51.826;5.850;2023-08-21T09:43:28;23.72;67.87
67054;SHT31;53960;51.826;5.850;2023-08-21T09:45:54;23.82;67.81
67054;SHT31;53960;51.826;5.850;2023-08-21T09:48:27;23.89;65.97
67054;SHT31;53960;51.826;5.850;2023-08-21T09:50:53;23.85;66.05
67054;SHT31;53960;51.826;5.850;2023-08-21T09:53:22;23.82;66.96
67054;SHT31;53960;51.826;5.850;2023-08-21T09:55:53;23.81;66.82
67054;SHT31;53960;51.826;5.850;2023-08-21T09:58:19;23.93;67.38
67054;SHT31;53960;51.826;5.850;2023-08-21T10:00:45;24.10;67.12
67054;SHT31;53960;51.826;5.850;2023-08-21T10:03:15;24.13;66.69
67054;SHT31;53960;51.826;5.850;2023-08-21T10:05:43;24.24;66.22
67054;SHT31;53960;51.826;5.850;2023-08-21T10:08:09;24.33;66.01
67054;SHT31;53960;51.826;5.850;2023-08-21T10:10:36;24.36;65.78
67054;SHT31;53960;51.826;5.850;2023-08-21T10:13:03;24.36;65.21
67054;SHT31;53960;51.826;5.850;2023-08-21T10:15:29;24.34;65.04
67054;SHT31;53960;51.826;5.850;2023-08-21T10:17:54;24.33;65.35
67054;SHT31;53960;51.826;5.850;2023-08-21T10:20:22;24.40;66.55
67054;SHT31;53960;51.826;5.850;2023-08-21T10:22:52;24.49;67.07
67054;SHT31;53960;51.826;5.850;2023-08-21T10:25:25;24.56;65.94
67054;SHT31;53960;51.826;5.850;2023-08-21T10:27:55;24.43;64.67
67054;SHT31;53960;51.826;5.850;2023-08-21T10:30:27;24.30;64.85
67054;SHT31;53960;51.826;5.850;2023-08-21T10:32:54;24.32;64.55
67054;SHT31;53960;51.826;5.850;2023-08-21T10:35:21;24.43;65.20
67054;SHT31;53960;51.826;5.850;2023-08-21T10:38:15;24.39;63.72
67054;SHT31;53960;51.826;5.850;2023-08-21T10:41:08;24.22;65.21
67054;SHT31;53960;51.826;5.850;2023-08-21T10:43:43;24.39;65.69
67054;SHT31;53960;51.826;5.850;2023-08-21T10:46:10;24.51;65.59
67054;SHT31;53960;51.826;5.850;2023-08-21T10:48:36;24.57;65.10
67054;SHT31;53960;51.826;5.850;2023-08-21T10:51:03;24.72;67.84
67054;SHT31;53960;51.826;5.850;2023-08-21T10:53:30;24.84;65.45
67054;SHT31;53960;51.826;5.850;2023-08-21T10:55:56;24.84;63.77
67054;SHT31;53960;51.826;5.850;2023-08-21T10:58:22;24.96;66.34
67054;SHT31;53960;51.826;5.850;2023-08-21T11:00:56;25.12;65.88
67054;SHT31;53960;51.826;5.850;2023-08-21T11:03:22;25.25;64.95
67054;SHT31;53960;51.826;5.850;2023-08-21T11:06:00;25.32;62.70
67054;SHT31;53960;51.826;5.850;2023-08-21T11:08:26;25.38;62.83
67054;SHT31;53960;51.826;5.850;2023-08-21T11:10:51;25.36;61.93
67054;SHT31;53960;51.826;5.850;2023-08-21T11:13:17;25.18;60.98
67054;SHT31;53960;51.826;5.850;2023-08-21T11:15:45;25.15;58.91
67054;SHT31;53960;51.826;5.850;2023-08-21T11:18:11;24.92;58.51
67054;SHT31;53960;51.826;5.850;2023-08-21T11:20:36;24.92;59.15
67054;SHT31;53960;51.826;5.850;2023-08-21T11:23:06;24.99;60.28
67054;SHT31;53960;51.826;5.850;2023-08-21T11:25:35;25.15;60.78
67054;SHT31;53960;51.826;5.850;2023-08-21T11:28:03;25.23;60.94
67054;SHT31;53960;51.826;5.850;2023-08-21T11:30:28;25.33;59.80
67054;SHT31;53960;51.826;5.850;2023-08-21T11:33:05;25.35;60.67
67054;SHT31;53960;51.826;5.850;2023-08-21T11:35:31;25.47;59.30
67054;SHT31;53960;51.826;5.850;2023-08-21T11:37:56;25.58;58.13
67054;SHT31;53960;51.826;5.850;2023-08-21T11:40:22;25.60;58.32
67054;SHT31;53960;51.826;5.850;2023-08-21T11:42:51;25.70;58.24
67054;SHT31;53960;51.826;5.850;2023-08-21T11:45:20;25.77;57.55
67054;SHT31;53960;51.826;5.850;2023-08-21T11:47:46;25.81;54.56
67054;SHT31;53960;51.826;5.850;2023-08-21T11:50:11;25.79;54.75
67054;SHT31;53960;51.826;5.850;2023-08-21T11:52:38;25.71;55.61
67054;SHT31;53960;51.826;5.850;2023-08-21T11:55:08;25.71;55.69
67054;SHT31;53960;51.826;5.850;2023-08-21T11:57:34;25.73;56.42
67054;SHT31;53960;51.826;5.850;2023-08-21T12:00:00;25.83;55.93
67054;SHT31;53960;51.826;5.850;2023-08-21T12:02:27;25.89;57.43
67054;SHT31;53960;51.826;5.850;2023-08-21T12:05:13;26.01;57.29
67054;SHT31;53960;51.826;5.850;2023-08-21T12:07:39;26.05;56.64
67054;SHT31;53960;51.826;5.850;2023-08-21T12:10:04;26.10;57.18
67054;SHT31;53960;51.826;5.850;2023-08-21T12:12:30;26.02;57.17
67054;SHT31;53960;51.826;5.850;2023-08-21T12:14:55;26.00;56.04
67054;SHT31;53960;51.826;5.850;2023-08-21T12:17:21;25.98;55.74
67054;SHT31;53960;51.826;5.850;2023-08-21T12:19:46;26.04;55.13
67054;SHT31;53960;51.826;5.850;2023-08-21T12:22:11;26.11;55.34
67054;SHT31;53960;51.826;5.850;2023-08-21T12:24:37;26.16;55.24
67054;SHT31;53960;51.826;5.850;2023-08-21T12:27:03;26.20;55.97
67054;SHT31;53960;51.826;5.850;2023-08-21T12:29:29;26.21;56.30
67054;SHT31;53960;51.826;5.850;2023-08-21T12:31:55;26.17;55.69
67054;SHT31;53960;51.826;5.850;2023-08-21T12:34:20;26.14;56.29
67054;SHT31;53960;51.826;5.850;2023-08-21T12:36:45;26.20;56.30
67054;SHT31;53960;51.826;5.850;2023-08-21T12:39:11;26.27;56.80
67054;SHT31;53960;51.826;5.850;2023-08-21T12:41:36;26.28;55.54
67054;SHT31;53960;51.826;5.850;2023-08-21T12:44:02;26.28;56.90
67054;SHT31;53960;51.826;5.850;2023-08-21T12:46:28;26.25;56.86
67054;SHT31;53960;51.826;5.850;2023-08-21T12:48:55;26.44;58.29
67054;SHT31;53960;51.826;5.850;2023-08-21T12:51:21;26.56;57.65
67054;SHT31;53960;51.826;5.850;2023-08-21T12:53:46;26.68;58.44
67054;SHT31;53960;51.826;5.850;2023-08-21T12:56:11;26.76;58.59
67054;SHT31;53960;51.826;5.850;2023-08-21T12:58:37;26.71;57.94
67054;SHT31;53960;51.826;5.850;2023-08-21T13:01:02;26.73;57.71
67054;SHT31;53960;51.826;5.850;2023-08-21T13:03:33;26.52;57.72
67054;SHT31;53960;51.826;5.850;2023-08-21T13:05:58;26.41;57.52
67054;SHT31;53960;51.826;5.850;2023-08-21T13:08:24;26.55;57.78
67054;SHT31;53960;51.826;5.850;2023-08-21T13:10:49;26.60;59.06
67054;SHT31;53960;51.826;5.850;2023-08-21T13:13:14;26.69;57.69
67054;SHT31;53960;51.826;5.850;2023-08-21T13:15:39;26.72;57.30
67054;SHT31;53960;51.826;5.850;2023-08-21T13:18:05;26.87;57.82
67054;SHT31;53960;51.826;5.850;2023-08-21T13:20:31;26.83;58.04
67054;SHT31;53960;51.826;5.850;2023-08-21T13:22:56;26.47;58.08
67054;SHT31;53960;51.826;5.850;2023-08-21T13:25:23;26.60;57.60
67054;SHT31;53960;51.826;5.850;2023-08-21T13:27:50;26.55;56.72
67054;SHT31;53960;51.826;5.850;2023-08-21T13:30:16;26.29;58.72
67054;SHT31;53960;51.826;5.850;2023-08-21T13:32:41;26.55;58.48
67054;SHT31;53960;51.826;5.850;2023-08-21T13:35:07;26.68;57.83
67054;SHT31;53960;51.826;5.850;2023-08-21T13:37:36;26.35;57.71
67054;SHT31;53960;51.826;5.850;2023-08-21T13:40:02;26.24;58.32
67054;SHT31;53960;51.826;5.850;2023-08-21T13:42:37;26.37;58.39
67054;SHT31;53960;51.826;5.850;2023-08-21T13:45:07;26.53;57.97
67054;SHT31;53960;51.826;5.850;2023-08-21T13:47:32;26.32;58.27
67054;SHT31;53960;51.826;5.850;2023-08-21T13:49:59;26.05;58.93
67054;SHT31;53960;51.826;5.850;2023-08-21T13:52:24;26.32;58.91
67054;SHT31;53960;51.826;5.850;2023-08-21T13:54:50;26.47;59.05
67054;SHT31;53960;51.826;5.850;2023-08-21T13:57:15;26.56;57.59
67054;SHT31;53960;51.826;5.850;2023-08-21T13:59:40;26.63;57.81
67054;SHT31;53960;51.826;5.850;2023-08-21T14:02:06;26.72;57.21
67054;SHT31;53960;51.826;5.850;2023-08-21T14:04:32;26.76;57.31
67054;SHT31;53960;51.826;5.850;2023-08-21T14:06:57;26.89;57.24
67054;SHT31;53960;51.826;5.850;2023-08-21T14:09:23;26.95;56.74
67054;SHT31;53960;51.826;5.850;2023-08-21T14:11:48;26.95;56.27
67054;SHT31;53960;51.826;5.850;2023-08-21T14:14:13;27.02;55.58
67054;SHT31;53960;51.826;5.850;2023-08-21T14:16:39;27.00;55.06
67054;SHT31;53960;51.826;5.850;2023-08-21T14:19:04;27.03;54.99
67054;SHT31;53960;51.826;5.850;2023-08-21T14:21:29;27.08;55.45
67054;SHT31;53960;51.826;5.850;2023-08-21T14:23:55;26.96;54.17
67054;SHT31;53960;51.826;5.850;2023-08-21T14:26:20;26.96;54.74
67054;SHT31;53960;51.826;5.850;2023-08-21T14:28:45;26.89;54.18
67054;SHT31;53960;51.826;5.850;2023-08-21T14:31:15;26.85;54.32
67054;SHT31;53960;51.826;5.850;2023-08-21T14:33:41;26.87;54.64
67054;SHT31;53960;51.826;5.850;2023-08-21T14:36:06;26.79;54.22
67054;SHT31;53960;51.826;5.850;2023-08-21T14:38:32;26.89;55.02
67054;SHT31;53960;51.826;5.850;2023-08-21T14:40:57;26.95;53.78
67054;SHT31;53960;51.826;5.850;2023-08-21T14:43:23;26.92;53.79
67054;SHT31;53960;51.826;5.850;2023-08-21T14:45:48;26.96;54.01
67054;SHT31;53960;51.826;5.850;2023-08-21T14:48:13;27.07;53.88
67054;SHT31;53960;51.826;5.850;2023-08-21T14:50:39;26.96;50.59
67054;SHT31;53960;51.826;5.850;2023-08-21T14:53:04;27.03;51.42
67054;SHT31;53960;51.826;5.850;2023-08-21T14:55:30;27.02;51.64
67054;SHT31;53960;51.826;5.850;2023-08-21T14:57:55;27.04;52.69
67054;SHT31;53960;51.826;5.850;2023-08-21T15:00:20;27.13;52.84
67054;SHT31;53960;51.826;5.850;2023-08-21T15:02:46;27.23;51.03
67054;SHT31;53960;51.826;5.850;2023-08-21T15:05:11;27.23;51.19
67054;SHT31;53960;51.826;5.850;2023-08-21T15:07:40;27.30;50.62
67054;SHT31;53960;51.826;5.850;2023-08-21T15:10:05;27.26;49.13
67054;SHT31;53960;51.826;5.850;2023-08-21T15:12:31;27.13;46.76
67054;SHT31;53960;51.826;5.850;2023-08-21T15:14:56;27.14;48.27
67054;SHT31;53960;51.826;5.850;2023-08-21T15:17:21;27.14;47.81
67054;SHT31;53960;51.826;5.850;2023-08-21T15:19:47;27.14;47.26
67054;SHT31;53960;51.826;5.850;2023-08-21T15:22:14;27.29;48.22
67054;SHT31;53960;51.826;5.850;2023-08-21T15:24:40;27.26;47.80